sensor_id;sensor_type;location;lat;lon;timestamp;temperature;humidity
63875;DHT22;51595;24.180;-110.296;2024-02-15T00:01:02;18.40;99.90
63875;DHT22;51595;24.180;-110.296;2024-02-15T00:03:37;18.20;99.90
63875;DHT22;51595;24.180;-110.296;2024-02-15T00:06:10;18.30;99.90
63875;DHT22;51595;24.180;-110.296;2024-02-15T00:08:40;18.40;99.90
63875;DHT22;51595;24.180;-110.296;2024-02-15T00:11:09;18.10;99.90
63875;DHT22;51595;24.180;-110.296;2024-02-15T00:16:24;17.70;99.90
63875;DHT22;51595;24.180;-110.296;2024-02-15T00:18:51;17.70;99.90
63875;DHT22;51595;24.180;-110.296;2024-02-15T00:21:18;17.70;99.90
63875;DHT22;51595;24.180;-110.296;2024-02-15T00:23:46;17.60;99.90
63875;DHT22;51595;24.180;-110.296;2024-02-15T00:26:16;17.50;99.90
63875;DHT22;51595;24.180;-110.296;2024-02-15T00:28:44;17.20;99.90
63875;DHT22;51595;24.180;-110.296;2024-02-15T00:31:11;17.10;99.90
63875;DHT22;51595;24.180;-110.296;2024-02-15T00:33:39;16.90;99.90
63875;DHT22;51595;24.180;-110.296;2024-02-15T00:36:07;17.00;99.90
63875;DHT22;51595;24.180;-110.296;2024-02-15T00:38:38;17.00;99.90
63875;DHT22;51595;24.180;-110.296;2024-02-15T00:41:06;17.00;99.90
63875;DHT22;51595;24.180;-110.296;2024-02-15T00:43:35;16.90;99.90
63875;DHT22;51595;24.180;-110.296;2024-02-15T00:46:03;16.80;99.90
63875;DHT22;51595;24.180;-110.296;2024-02-15T00:48:30;16.70;99.90
63875;DHT22;51595;24.180;-110.296;2024-02-15T00:50:58;16.60;99.90
63875;DHT22;51595;24.180;-110.296;2024-02-15T00:53:26;16.40;99.90
63875;DHT22;51595;24.180;-110.296;2024-02-15T00:55:53;16.30;99.90
63875;DHT22;51595;24.180;-110.296;2024-02-15T00:58:22;16.30;99.90
63875;DHT22;51595;24.180;-110.296;2024-02-15T01:00:49;16.20;99.90
63875;DHT22;51595;24.180;-110.296;2024-02-15T01:03:17;16.20;99.90
63875;DHT22;51595;24.180;-110.296;2024-02-15T01:05:45;16.10;99.90
63875;DHT22;51595;24.180;-110.296;2024-02-15T01:08:12;15.80;99.90
63875;DHT22;51595;24.180;-110.296;2024-02-15T01:10:41;15.70;99.90
63875;DHT22;51595;24.180;-110.296;2024-02-15T01:13:09;15.60;99.90
63875;DHT22;51595;24.180;-110.296;2024-02-15T01:15:36;15.50;99.90
63875;DHT22;51595;24.180;-110.296;2024-02-15T01:18:04;15.30;99.90
63875;DHT22;51595;24.180;-110.296;2024-02-15T01:20:31;15.30;99.90
63875;DHT22;51595;24.180;-110.296;2024-02-15T01:22:58;15.20;99.90
63875;DHT22;51595;24.180;-110.296;2024-02-15T01:25:26;15.00;99.90
63875;DHT22;51595;24.180;-110.296;2024-02-15T01:27:54;14.90;99.90
63875;DHT22;51595;24.180;-110.296;2024-02-15T01:30:22;15.00;99.90
63875;DHT22;51595;24.180;-110.296;2024-02-15T01:32:49;14.90;99.90
63875;DHT22;51595;24.180;-110.296;2024-02-15T01:35:17;14.80;99.90
63875;DHT22;51595;24.180;-110.296;2024-02-15T01:37:44;14.80;99.90
63875;DHT22;51595;24.180;-110.296;2024-02-15T01:40:12;14.80;99.90
63875;DHT22;51595;24.180;-110.296;2024-02-15T01:42:44;14.70;99.90
63875;DHT22;51595;24.180;-110.296;2024-02-15T01:45:11;14.60;99.90
63875;DHT22;51595;24.180;-110.296;2024-02-15T01:47:46;14.50;99.90
63875;DHT22;51595;24.180;-110.296;2024-02-15T01:50:13;14.50;99.90
63875;DHT22;51595;24.180;-110.296;2024-02-15T01:52:44;14.40;99.90
63875;DHT22;51595;24.180;-110.296;2024-02-15T01:55:18;14.50;99.90
63875;DHT22;51595;24.180;-110.296;2024-02-15T01:57:45;14.50;99.90
63875;DHT22;51595;24.180;-110.296;2024-02-15T02:00:14;14.40;99.90
63875;DHT22;51595;24.180;-110.296;2024-02-15T02:02:43;14.30;99.90
63875;DHT22;51595;24.180;-110.296;2024-02-15T02:05:15;14.30;99.90
63875;DHT22;51595;24.180;-110.296;2024-02-15T02:07:42;14.20;99.90
63875;DHT22;51595;24.180;-110.296;2024-02-15T02:10:10;14.20;99.90
63875;DHT22;51595;24.180;-110.296;2024-02-15T02:12:42;14.20;99.90
63875;DHT22;51595;24.180;-110.296;2024-02-15T02:15:10;14.30;99.90
63875;DHT22;51595;24.180;-110.296;2024-02-15T02:17:37;14.20;99.90
63875;DHT22;51595;24.180;-110.296;2024-02-15T02:20:07;14.10;99.90
63875;DHT22;51595;24.180;-110.296;2024-02-15T02:22:44;14.10;99.90
63875;DHT22;51595;24.180;-110.296;2024-02-15T02:25:14;14.10;99.90
63875;DHT22;51595;24.180;-110.296;2024-02-15T02:27:41;14.00;99.90
63875;DHT22;51595;24.180;-110.296;2024-02-15T02:30:16;14.00;99.90
63875;DHT22;51595;24.180;-110.296;2024-02-15T02:32:51;14.00;99.90
63875;DHT22;51595;24.180;-110.296;2024-02-15T02:35:18;14.00;99.90
63875;DHT22;51595;24.180;-110.296;2024-02-15T02:37:47;14.10;99.90
63875;DHT22;51595;24.180;-110.296;2024-02-15T02:40:17;14.30;99.90
63875;DHT22;51595;24.180;-110.296;2024-02-15T02:42:51;14.40;99.90
63875;DHT22;51595;24.180;-110.296;2024-02-15T02:45:20;14.40;99.90
63875;DHT22;51595;24.180;-110.296;2024-02-15T02:47:52;14.30;99.90
63875;DHT22;51595;24.180;-110.296;2024-02-15T02:50:20;14.20;99.90
63875;DHT22;51595;24.180;-110.296;2024-02-15T02:52:47;15.00;99.90
63875;DHT22;51595;24.180;-110.296;2024-02-15T02:55:15;14.10;99.90
63875;DHT22;51595;24.180;-110.296;2024-02-15T02:57:43;14.20;99.90
63875;DHT22;51595;24.180;-110.296;2024-02-15T03:00:12;14.20;99.90
63875;DHT22;51595;24.180;-110.296;2024-02-15T03:02:55;14.10;99.90
63875;DHT22;51595;24.180;-110.296;2024-02-15T03:05:23;14.10;99.90
63875;DHT22;51595;24.180;-110.296;2024-02-15T03:07:51;14.00;99.90
63875;DHT22;51595;24.180;-110.296;2024-02-15T03:13:06;14.10;99.90
63875;DHT22;51595;24.180;-110.296;2024-02-15T03:15:41;14.10;99.90
63875;DHT22;51595;24.180;-110.296;2024-02-15T03:18:08;14.10;99.90
63875;DHT22;51595;24.180;-110.296;2024-02-15T03:20:38;14.20;99.90
63875;DHT22;51595;24.180;-110.296;2024-02-15T03:23:06;14.20;99.90
63875;DHT22;51595;24.180;-110.296;2024-02-15T03:25:34;14.10;99.90
63875;DHT22;51595;24.180;-110.296;2024-02-15T03:28:01;14.00;99.90
63875;DHT22;51595;24.180;-110.296;2024-02-15T03:30:33;13.90;99.90
63875;DHT22;51595;24.180;-110.296;2024-02-15T03:33:03;13.80;99.90
63875;DHT22;51595;24.180;-110.296;2024-02-15T03:35:32;13.80;99.90
63875;DHT22;51595;24.180;-110.296;2024-02-15T03:37:59;13.80;99.90
63875;DHT22;51595;24.180;-110.296;2024-02-15T03:40:27;13.80;99.90
63875;DHT22;51595;24.180;-110.296;2024-02-15T03:42:57;13.80;99.90
63875;DHT22;51595;24.180;-110.296;2024-02-15T03:45:33;13.80;99.90
63875;DHT22;51595;24.180;-110.296;2024-02-15T03:48:03;13.80;99.90
63875;DHT22;51595;24.180;-110.296;2024-02-15T03:50:32;13.80;99.90
63875;DHT22;51595;24.180;-110.296;2024-02-15T03:52:59;13.90;99.90
63875;DHT22;51595;24.180;-110.296;2024-02-15T03:55:27;13.90;99.90
63875;DHT22;51595;24.180;-110.296;2024-02-15T03:57:57;13.90;99.90
63875;DHT22;51595;24.180;-110.296;2024-02-15T04:00:24;14.00;99.90
63875;DHT22;51595;24.180;-110.296;2024-02-15T04:02:51;14.00;99.90
63875;DHT22;51595;24.180;-110.296;2024-02-15T04:05:18;14.00;99.90
63875;DHT22;51595;24.180;-110.296;2024-02-15T04:07:48;14.00;99.90
63875;DHT22;51595;24.180;-110.296;2024-02-15T04:10:15;13.90;99.90
63875;DHT22;51595;24.180;-110.296;2024-02-15T04:12:44;13.90;99.90
63875;DHT22;51595;24.180;-110.296;2024-02-15T04:15:12;13.90;99.90
63875;DHT22;51595;24.180;-110.296;2024-02-15T04:17:42;13.80;99.90
63875;DHT22;51595;24.180;-110.296;2024-02-15T04:20:14;13.70;99.90
63875;DHT22;51595;24.180;-110.296;2024-02-15T04:22:43;13.70;99.90
63875;DHT22;51595;24.180;-110.296;2024-02-15T04:25:11;13.60;99.90
63875;DHT22;51595;24.180;-110.296;2024-02-15T04:27:48;13.60;99.90
63875;DHT22;51595;24.180;-110.296;2024-02-15T04:30:16;13.60;99.90
63875;DHT22;51595;24.180;-110.296;2024-02-15T04:32:43;13.70;99.90
63875;DHT22;51595;24.180;-110.296;2024-02-15T04:35:11;13.70;99.90
63875;DHT22;51595;24.180;-110.296;2024-02-15T04:37:40;13.60;99.90
63875;DHT22;51595;24.180;-110.296;2024-02-15T04:40:08;13.60;99.90
63875;DHT22;51595;24.180;-110.296;2024-02-15T04:42:39;13.50;99.90
63875;DHT22;51595;24.180;-110.296;2024-02-15T04:45:09;13.50;99.90
63875;DHT22;51595;24.180;-110.296;2024-02-15T04:47:42;13.50;99.90
63875;DHT22;51595;24.180;-110.296;2024-02-15T04:50:14;13.50;99.90
63875;DHT22;51595;24.180;-110.296;2024-02-15T04:52:46;13.50;99.90
63875;DHT22;51595;24.180;-110.296;2024-02-15T04:55:16;13.50;99.90
63875;DHT22;51595;24.180;-110.296;2024-02-15T04:57:46;13.50;99.90
63875;DHT22;51595;24.180;-110.296;2024-02-15T05:00:23;13.50;99.90
63875;DHT22;51595;24.180;-110.296;2024-02-15T05:02:52;13.70;99.90
63875;DHT22;51595;24.180;-110.296;2024-02-15T05:05:23;13.90;99.90
63875;DHT22;51595;24.180;-110.296;2024-02-15T05:07:56;13.80;99.90
63875;DHT22;51595;24.180;-110.296;2024-02-15T05:10:25;13.80;99.90
63875;DHT22;51595;24.180;-110.296;2024-02-15T05:12:52;13.70;99.90
63875;DHT22;51595;24.180;-110.296;2024-02-15T05:15:21;13.60;99.90
63875;DHT22;51595;24.180;-110.296;2024-02-15T05:17:51;13.60;99.90
63875;DHT22;51595;24.180;-110.296;2024-02-15T05:20:20;13.60;99.90
63875;DHT22;51595;24.180;-110.296;2024-02-15T05:22:48;13.50;99.90
63875;DHT22;51595;24.180;-110.296;2024-02-15T05:25:16;13.50;99.90
63875;DHT22;51595;24.180;-110.296;2024-02-15T05:27:49;13.50;99.90
63875;DHT22;51595;24.180;-110.296;2024-02-15T05:30:16;13.40;99.90
63875;DHT22;51595;24.180;-110.296;2024-02-15T05:32:45;13.50;99.90
63875;DHT22;51595;24.180;-110.296;2024-02-15T05:35:12;13.50;99.90
63875;DHT22;51595;24.180;-110.296;2024-02-15T05:37:39;13.50;99.90
63875;DHT22;51595;24.180;-110.296;2024-02-15T05:40:07;13.50;99.90
63875;DHT22;51595;24.180;-110.296;2024-02-15T05:42:57;13.50;99.90
63875;DHT22;51595;24.180;-110.296;2024-02-15T05:47:55;13.30;99.90
63875;DHT22;51595;24.180;-110.296;2024-02-15T05:50:23;13.30;99.90
63875;DHT22;51595;24.180;-110.296;2024-02-15T05:52:50;13.30;99.90
63875;DHT22;51595;24.180;-110.296;2024-02-15T05:55:27;13.30;99.90
63875;DHT22;51595;24.180;-110.296;2024-02-15T05:57:56;13.30;99.90
63875;DHT22;51595;24.180;-110.296;2024-02-15T06:00:23;13.20;99.90
63875;DHT22;51595;24.180;-110.296;2024-02-15T06:02:51;13.30;99.90
63875;DHT22;51595;24.180;-110.296;2024-02-15T06:05:22;13.30;99.90
63875;DHT22;51595;24.180;-110.296;2024-02-15T06:07:50;13.30;99.90
63875;DHT22;51595;24.180;-110.296;2024-02-15T06:10:18;13.30;99.90
63875;DHT22;51595;24.180;-110.296;2024-02-15T06:12:45;13.30;99.90
63875;DHT22;51595;24.180;-110.296;2024-02-15T06:15:13;13.40;99.90
63875;DHT22;51595;24.180;-110.296;2024-02-15T06:17:43;13.40;99.90
63875;DHT22;51595;24.180;-110.296;2024-02-15T06:20:12;13.40;99.90
63875;DHT22;51595;24.180;-110.296;2024-02-15T06:22:44;13.40;99.90
63875;DHT22;51595;24.180;-110.296;2024-02-15T06:25:13;13.40;99.90
63875;DHT22;51595;24.180;-110.296;2024-02-15T06:27:42;13.40;99.90
63875;DHT22;51595;24.180;-110.296;2024-02-15T06:30:11;13.40;99.90
63875;DHT22;51595;24.180;-110.296;2024-02-15T06:32:57;13.40;99.90
63875;DHT22;51595;24.180;-110.296;2024-02-15T06:35:43;13.50;99.90
63875;DHT22;51595;24.180;-110.296;2024-02-15T06:38:28;13.50;99.90
63875;DHT22;51595;24.180;-110.296;2024-02-15T06:41:20;13.50;99.90
63875;DHT22;51595;24.180;-110.296;2024-02-15T06:43:47;13.50;99.90
63875;DHT22;51595;24.180;-110.296;2024-02-15T06:46:15;13.60;99.90
63875;DHT22;51595;24.180;-110.296;2024-02-15T06:48:43;13.60;99.90
63875;DHT22;51595;24.180;-110.296;2024-02-15T06:51:14;13.70;99.90
63875;DHT22;51595;24.180;-110.296;2024-02-15T06:53:47;13.70;99.90
63875;DHT22;51595;24.180;-110.296;2024-02-15T06:56:14;13.80;99.90
63875;DHT22;51595;24.180;-110.296;2024-02-15T06:58:41;13.90;99.90
63875;DHT22;51595;24.180;-110.296;2024-02-15T07:01:08;14.10;99.90
63875;DHT22;51595;24.180;-110.296;2024-02-15T07:03:36;14.20;99.90
63875;DHT22;51595;24.180;-110.296;2024-02-15T07:06:04;14.30;99.90
63875;DHT22;51595;24.180;-110.296;2024-02-15T07:08:32;14.40;99.90
63875;DHT22;51595;24.180;-110.296;2024-02-15T07:10:59;14.40;99.90
63875;DHT22;51595;24.180;-110.296;2024-02-15T07:13:28;14.50;99.90
63875;DHT22;51595;24.180;-110.296;2024-02-15T07:15:56;14.40;99.90
63875;DHT22;51595;24.180;-110.296;2024-02-15T07:18:23;14.30;99.90
63875;DHT22;51595;24.180;-110.296;2024-02-15T07:20:54;14.40;99.90
63875;DHT22;51595;24.180;-110.296;2024-02-15T07:23:23;14.50;99.90
63875;DHT22;51595;24.180;-110.296;2024-02-15T07:25:51;14.40;99.90
63875;DHT22;51595;24.180;-110.296;2024-02-15T07:28:20;14.30;99.90
63875;DHT22;51595;24.180;-110.296;2024-02-15T07:30:51;14.30;99.90
63875;DHT22;51595;24.180;-110.296;2024-02-15T07:33:19;14.30;99.90
63875;DHT22;51595;24.180;-110.296;2024-02-15T07:35:48;14.30;99.90
63875;DHT22;51595;24.180;-110.296;2024-02-15T07:38:20;14.20;99.90
63875;DHT22;51595;24.180;-110.296;2024-02-15T07:41:09;14.20;99.90
63875;DHT22;51595;24.180;-110.296;2024-02-15T07:43:37;14.20;99.90
63875;DHT22;51595;24.180;-110.296;2024-02-15T07:46:06;14.30;99.90
63875;DHT22;51595;24.180;-110.296;2024-02-15T07:48:34;14.30;99.90
63875;DHT22;51595;24.180;-110.296;2024-02-15T07:51:01;14.30;99.90
63875;DHT22;51595;24.180;-110.296;2024-02-15T07:53:28;14.20;99.90
63875;DHT22;51595;24.180;-110.296;2024-02-15T07:55:56;14.20;99.90
63875;DHT22;51595;24.180;-110.296;2024-02-15T07:58:25;14.20;99.90
63875;DHT22;51595;24.180;-110.296;2024-02-15T08:00:52;14.20;99.90
63875;DHT22;51595;24.180;-110.296;2024-02-15T08:03:19;14.20;99.90
63875;DHT22;51595;24.180;-110.296;2024-02-15T08:05:47;14.20;99.90
63875;DHT22;51595;24.180;-110.296;2024-02-15T08:08:14;14.30;99.90
63875;DHT22;51595;24.180;-110.296;2024-02-15T08:10:42;14.30;99.90
63875;DHT22;51595;24.180;-110.296;2024-02-15T08:13:11;14.30;99.90
63875;DHT22;51595;24.180;-110.296;2024-02-15T08:15:41;14.30;99.90
63875;DHT22;51595;24.180;-110.296;2024-02-15T08:18:11;14.20;99.90
63875;DHT22;51595;24.180;-110.296;2024-02-15T08:20:39;14.20;99.90
63875;DHT22;51595;24.180;-110.296;2024-02-15T08:23:07;14.10;99.90
63875;DHT22;51595;24.180;-110.296;2024-02-15T08:25:39;14.10;99.90
63875;DHT22;51595;24.180;-110.296;2024-02-15T08:28:09;14.10;99.90
63875;DHT22;51595;24.180;-110.296;2024-02-15T08:30:37;14.20;99.90
63875;DHT22;51595;24.180;-110.296;2024-02-15T08:33:04;14.30;99.90
63875;DHT22;51595;24.180;-110.296;2024-02-15T08:42:17;14.20;99.90
63875;DHT22;51595;24.180;-110.296;2024-02-15T08:44:49;14.10;99.90
63875;DHT22;51595;24.180;-110.296;2024-02-15T08:50:39;14.00;99.90
63875;DHT22;51595;24.180;-110.296;2024-02-15T08:53:08;13.90;99.90
63875;DHT22;51595;24.180;-110.296;2024-02-15T08:55:35;13.80;99.90
63875;DHT22;51595;24.180;-110.296;2024-02-15T08:58:02;13.80;99.90
63875;DHT22;51595;24.180;-110.296;2024-02-15T09:00:30;13.80;99.90
63875;DHT22;51595;24.180;-110.296;2024-02-15T09:02:58;13.90;99.90
63875;DHT22;51595;24.180;-110.296;2024-02-15T09:05:25;14.00;99.90
63875;DHT22;51595;24.180;-110.296;2024-02-15T09:07:53;14.00;99.90
63875;DHT22;51595;24.180;-110.296;2024-02-15T09:10:20;13.90;99.90
63875;DHT22;51595;24.180;-110.296;2024-02-15T09:13:10;13.90;99.90
63875;DHT22;51595;24.180;-110.296;2024-02-15T09:15:38;13.80;99.90
63875;DHT22;51595;24.180;-110.296;2024-02-15T09:18:05;13.70;99.90
63875;DHT22;51595;24.180;-110.296;2024-02-15T09:20:36;13.60;99.90
63875;DHT22;51595;24.180;-110.296;2024-02-15T09:23:05;13.50;99.90
63875;DHT22;51595;24.180;-110.296;2024-02-15T09:25:39;13.40;99.90
63875;DHT22;51595;24.180;-110.296;2024-02-15T09:28:06;13.40;99.90
63875;DHT22;51595;24.180;-110.296;2024-02-15T09:30:34;13.40;99.90
63875;DHT22;51595;24.180;-110.296;2024-02-15T09:33:02;13.40;99.90
63875;DHT22;51595;24.180;-110.296;2024-02-15T09:35:32;13.50;99.90
63875;DHT22;51595;24.180;-110.296;2024-02-15T09:37:59;13.60;99.90
63875;DHT22;51595;24.180;-110.296;2024-02-15T09:40:27;13.60;99.90
63875;DHT22;51595;24.180;-110.296;2024-02-15T09:42:56;13.50;99.90
63875;DHT22;51595;24.180;-110.296;2024-02-15T09:45:23;13.50;99.90
63875;DHT22;51595;24.180;-110.296;2024-02-15T09:47:51;13.40;99.90
63875;DHT22;51595;24.180;-110.296;2024-02-15T09:50:20;13.30;99.90
63875;DHT22;51595;24.180;-110.296;2024-02-15T09:52:51;13.30;99.90
63875;DHT22;51595;24.180;-110.296;2024-02-15T09:55:21;13.30;99.90
63875;DHT22;51595;24.180;-110.296;2024-02-15T09:57:50;13.50;99.90
63875;DHT22;51595;24.180;-110.296;2024-02-15T10:00:21;13.60;99.90
63875;DHT22;51595;24.180;-110.296;2024-02-15T10:02:53;13.60;99.90
63875;DHT22;51595;24.180;-110.296;2024-02-15T10:05:21;13.60;99.90
63875;DHT22;51595;24.180;-110.296;2024-02-15T10:07:49;13.60;99.90
63875;DHT22;51595;24.180;-110.296;2024-02-15T10:10:22;13.60;99.90
63875;DHT22;51595;24.180;-110.296;2024-02-15T10:12:50;13.60;99.90
63875;DHT22;51595;24.180;-110.296;2024-02-15T10:18:25;13.80;99.90
63875;DHT22;51595;24.180;-110.296;2024-02-15T10:20:58;14.00;99.90
63875;DHT22;51595;24.180;-110.296;2024-02-15T10:23:25;14.20;99.90
63875;DHT22;51595;24.180;-110.296;2024-02-15T10:25:53;14.20;99.90
63875;DHT22;51595;24.180;-110.296;2024-02-15T10:28:22;14.20;99.90
63875;DHT22;51595;24.180;-110.296;2024-02-15T10:30:54;14.20;99.90
63875;DHT22;51595;24.180;-110.296;2024-02-15T10:33:30;14.20;99.90
63875;DHT22;51595;24.180;-110.296;2024-02-15T10:36:08;14.30;99.90
63875;DHT22;51595;24.180;-110.296;2024-02-15T10:38:35;14.40;99.90
63875;DHT22;51595;24.180;-110.296;2024-02-15T10:41:06;14.40;99.90
63875;DHT22;51595;24.180;-110.296;2024-02-15T10:43:35;14.40;99.90
63875;DHT22;51595;24.180;-110.296;2024-02-15T10:46:05;14.20;99.90
63875;DHT22;51595;24.180;-110.296;2024-02-15T10:48:36;14.10;99.90
63875;DHT22;51595;24.180;-110.296;2024-02-15T10:51:09;14.00;99.90
63875;DHT22;51595;24.180;-110.296;2024-02-15T10:53:47;13.80;99.90
63875;DHT22;51595;24.180;-110.296;2024-02-15T10:56:26;13.80;99.90
63875;DHT22;51595;24.180;-110.296;2024-02-15T10:59:16;13.90;99.90
63875;DHT22;51595;24.180;-110.296;2024-02-15T11:01:46;13.90;99.90
63875;DHT22;51595;24.180;-110.296;2024-02-15T11:04:20;13.90;99.90
63875;DHT22;51595;24.180;-110.296;2024-02-15T11:06:59;13.90;99.90
63875;DHT22;51595;24.180;-110.296;2024-02-15T11:09:28;13.90;99.90
63875;DHT22;51595;24.180;-110.296;2024-02-15T11:11:57;14.00;99.90
63875;DHT22;51595;24.180;-110.296;2024-02-15T11:14:31;14.00;99.90
63875;DHT22;51595;24.180;-110.296;2024-02-15T11:17:01;14.00;99.90
63875;DHT22;51595;24.180;-110.296;2024-02-15T11:22:10;14.10;99.90
63875;DHT22;51595;24.180;-110.296;2024-02-15T11:24:46;14.10;99.90
63875;DHT22;51595;24.180;-110.296;2024-02-15T11:27:25;14.10;99.90
63875;DHT22;51595;24.180;-110.296;2024-02-15T11:29:56;14.00;99.90
63875;DHT22;51595;24.180;-110.296;2024-02-15T11:32:46;14.10;99.90
63875;DHT22;51595;24.180;-110.296;2024-02-15T11:35:21;14.00;99.90
63875;DHT22;51595;24.180;-110.296;2024-02-15T11:37:53;14.00;99.90
63875;DHT22;51595;24.180;-110.296;2024-02-15T11:40:22;13.90;99.90
63875;DHT22;51595;24.180;-110.296;2024-02-15T11:42:53;14.00;99.90
63875;DHT22;51595;24.180;-110.296;2024-02-15T11:45:23;14.00;99.90
63875;DHT22;51595;24.180;-110.296;2024-02-15T11:47:53;14.10;99.90
63875;DHT22;51595;24.180;-110.296;2024-02-15T11:50:23;14.20;99.90
63875;DHT22;51595;24.180;-110.296;2024-02-15T11:53:01;14.20;99.90
63875;DHT22;51595;24.180;-110.296;2024-02-15T11:56:00;14.30;99.90
63875;DHT22;51595;24.180;-110.296;2024-02-15T11:58:31;14.50;99.90
63875;DHT22;51595;24.180;-110.296;2024-02-15T12:01:09;14.40;99.90
63875;DHT22;51595;24.180;-110.296;2024-02-15T12:03:55;14.30;99.90
63875;DHT22;51595;24.180;-110.296;2024-02-15T12:07:01;14.40;98.40
63875;DHT22;51595;24.180;-110.296;2024-02-15T12:09:46;14.50;97.60
63875;DHT22;51595;24.180;-110.296;2024-02-15T12:12:53;14.70;97.30
63875;DHT22;51595;24.180;-110.296;2024-02-15T12:15:39;14.80;96.50
63875;DHT22;51595;24.180;-110.296;2024-02-15T12:18:25;14.80;97.60
63875;DHT22;51595;24.180;-110.296;2024-02-15T12:21:16;14.90;98.10
63875;DHT22;51595;24.180;-110.296;2024-02-15T12:23:44;15.00;98.70
63875;DHT22;51595;24.180;-110.296;2024-02-15T12:26:12;15.00;99.90
63875;DHT22;51595;24.180;-110.296;2024-02-15T12:28:42;14.90;99.90
63875;DHT22;51595;24.180;-110.296;2024-02-15T12:31:09;14.80;99.90
63875;DHT22;51595;24.180;-110.296;2024-02-15T12:33:40;14.70;99.90
63875;DHT22;51595;24.180;-110.296;2024-02-15T12:36:09;14.50;99.90
63875;DHT22;51595;24.180;-110.296;2024-02-15T12:38:36;14.40;99.90
63875;DHT22;51595;24.180;-110.296;2024-02-15T12:41:18;14.40;99.90
63875;DHT22;51595;24.180;-110.296;2024-02-15T12:43:46;14.40;99.90
63875;DHT22;51595;24.180;-110.296;2024-02-15T12:46:19;14.40;99.90
63875;DHT22;51595;24.180;-110.296;2024-02-15T12:48:46;14.40;99.90
63875;DHT22;51595;24.180;-110.296;2024-02-15T12:51:17;14.50;99.90
63875;DHT22;51595;24.180;-110.296;2024-02-15T12:53:44;14.30;99.90
63875;DHT22;51595;24.180;-110.296;2024-02-15T12:56:20;14.20;99.90
63875;DHT22;51595;24.180;-110.296;2024-02-15T12:58:48;14.10;99.90
63875;DHT22;51595;24.180;-110.296;2024-02-15T13:01:15;14.10;99.90
63875;DHT22;51595;24.180;-110.296;2024-02-15T13:03:43;14.10;99.90
63875;DHT22;51595;24.180;-110.296;2024-02-15T13:06:10;14.30;99.90
63875;DHT22;51595;24.180;-110.296;2024-02-15T13:08:37;14.40;99.90
63875;DHT22;51595;24.180;-110.296;2024-02-15T13:11:05;14.50;99.90
63875;DHT22;51595;24.180;-110.296;2024-02-15T13:13:32;14.40;99.90
63875;DHT22;51595;24.180;-110.296;2024-02-15T13:19:23;14.30;99.90
63875;DHT22;51595;24.180;-110.296;2024-02-15T13:21:50;14.30;99.90
63875;DHT22;51595;24.180;-110.296;2024-02-15T13:24:19;14.30;99.90
63875;DHT22;51595;24.180;-110.296;2024-02-15T13:26:49;14.40;99.90
63875;DHT22;51595;24.180;-110.296;2024-02-15T13:29:18;14.40;99.90
63875;DHT22;51595;24.180;-110.296;2024-02-15T13:31:47;14.40;99.90
63875;DHT22;51595;24.180;-110.296;2024-02-15T13:34:20;14.40;99.90
63875;DHT22;51595;24.180;-110.296;2024-02-15T13:37:00;14.30;99.90
63875;DHT22;51595;24.180;-110.296;2024-02-15T13:39:30;14.30;99.90
63875;DHT22;51595;24.180;-110.296;2024-02-15T13:42:01;14.40;99.90
63875;DHT22;51595;24.180;-110.296;2024-02-15T13:44:29;14.30;99.90
63875;DHT22;51595;24.180;-110.296;2024-02-15T13:46:58;14.20;99.90
63875;DHT22;51595;24.180;-110.296;2024-02-15T13:49:26;14.30;99.90
63875;DHT22;51595;24.180;-110.296;2024-02-15T13:51:58;14.30;99.90
63875;DHT22;51595;24.180;-110.296;2024-02-15T13:54:29;14.40;99.90
63875;DHT22;51595;24.180;-110.296;2024-02-15T13:56:57;14.40;99.90
63875;DHT22;51595;24.180;-110.296;2024-02-15T13:59:29;14.30;99.90
63875;DHT22;51595;24.180;-110.296;2024-02-15T14:01:57;14.30;99.90
63875;DHT22;51595;24.180;-110.296;2024-02-15T14:04:24;14.40;99.90
63875;DHT22;51595;24.180;-110.296;2024-02-15T14:06:54;14.30;99.90
63875;DHT22;51595;24.180;-110.296;2024-02-15T14:09:22;14.10;99.90
63875;DHT22;51595;24.180;-110.296;2024-02-15T14:11:52;13.90;99.90
63875;DHT22;51595;24.180;-110.296;2024-02-15T14:14:20;14.00;99.90
63875;DHT22;51595;24.180;-110.296;2024-02-15T14:16:47;14.10;99.90
63875;DHT22;51595;24.180;-110.296;2024-02-15T14:19:14;14.20;99.90
63875;DHT22;51595;24.180;-110.296;2024-02-15T14:21:41;14.40;99.90
63875;DHT22;51595;24.180;-110.296;2024-02-15T14:24:11;14.20;99.90
63875;DHT22;51595;24.180;-110.296;2024-02-15T14:26:39;14.20;99.90
63875;DHT22;51595;24.180;-110.296;2024-02-15T14:29:07;14.30;99.90
63875;DHT22;51595;24.180;-110.296;2024-02-15T14:31:36;14.50;99.90
63875;DHT22;51595;24.180;-110.296;2024-02-15T14:34:21;14.50;99.90
63875;DHT22;51595;24.180;-110.296;2024-02-15T14:36:48;14.50;99.90
63875;DHT22;51595;24.180;-110.296;2024-02-15T14:39:15;14.40;99.90
63875;DHT22;51595;24.180;-110.296;2024-02-15T14:41:44;14.40;99.90
63875;DHT22;51595;24.180;-110.296;2024-02-15T14:44:12;14.40;99.90
63875;DHT22;51595;24.180;-110.296;2024-02-15T14:46:40;14.40;99.90
63875;DHT22;51595;24.180;-110.296;2024-02-15T14:49:07;14.50;99.90
63875;DHT22;51595;24.180;-110.296;2024-02-15T14:51:35;14.50;99.90
63875;DHT22;51595;24.180;-110.296;2024-02-15T14:54:05;14.50;99.90
63875;DHT22;51595;24.180;-110.296;2024-02-15T14:56:32;14.60;99.90
63875;DHT22;51595;24.180;-110.296;2024-02-15T14:58:59;14.60;99.90
63875;DHT22;51595;24.180;-110.296;2024-02-15T15:01:27;14.40;99.90
63875;DHT22;51595;24.180;-110.296;2024-02-15T15:03:56;14.40;99.90
63875;DHT22;51595;24.180;-110.296;2024-02-15T15:06:24;14.40;99.90
63875;DHT22;51595;24.180;-110.296;2024-02-15T15:09:10;14.50;99.90
63875;DHT22;51595;24.180;-110.296;2024-02-15T15:11:55;14.60;99.90
63875;DHT22;51595;24.180;-110.296;2024-02-15T15:15:01;14.60;99.90
63875;DHT22;51595;24.180;-110.296;2024-02-15T15:17:31;14.60;99.90
63875;DHT22;51595;24.180;-110.296;2024-02-15T15:19:58;14.60;99.90
63875;DHT22;51595;24.180;-110.296;2024-02-15T15:22:27;14.60;99.90
63875;DHT22;51595;24.180;-110.296;2024-02-15T15:24:54;14.60;99.90
63875;DHT22;51595;24.180;-110.296;2024-02-15T15:27:21;14.60;99.90
63875;DHT22;51595;24.180;-110.296;2024-02-15T15:29:51;14.80;99.90
63875;DHT22;51595;24.180;-110.296;2024-02-15T15:32:18;15.00;99.90
63875;DHT22;51595;24.180;-110.296;2024-02-15T15:34:45;14.90;99.90